sensor_id;sensor_type;location;lat;lon;timestamp;pressure;altitude;pressure_sealevel;temperature;humidity
6433;BME280;3249;42.690;23.260;2023-05-11T00:01:57;94421.50;;;9.40;100.00
6433;BME280;3249;42.690;23.260;2023-05-11T00:04:29;94429.03;;;9.35;100.00
6433;BME280;3249;42.690;23.260;2023-05-11T00:06:58;94421.53;;;9.33;100.00
6433;BME280;3249;42.690;23.260;2023-05-11T00:09:27;94420.53;;;9.34;100.00
6433;BME280;3249;42.690;23.260;2023-05-11T00:11:57;94423.09;;;9.34;100.00
6433;BME280;3249;42.690;23.260;2023-05-11T00:14:26;94404.19;;;9.22;100.00
6433;BME280;3249;42.690;23.260;2023-05-11T00:16:55;94428.91;;;9.17;100.00
6433;BME280;3249;42.690;23.260;2023-05-11T00:19:24;94433.44;;;9.21;100.00
6433;BME280;3249;42.690;23.260;2023-05-11T00:21:58;94429.50;;;9.19;100.00
6433;BME280;3249;42.690;23.260;2023-05-11T00:24:27;94422.44;;;9.01;100.00
6433;BME280;3249;42.690;23.260;2023-05-11T00:26:57;94411.34;;;9.07;100.00
6433;BME280;3249;42.690;23.260;2023-05-11T00:29:26;94422.00;;;9.17;100.00
6433;BME280;3249;42.690;23.260;2023-05-11T00:31:54;94427.75;;;9.06;100.00
6433;BME280;3249;42.690;23.260;2023-05-11T00:34:24;94430.91;;;9.08;100.00
6433;BME280;3249;42.690;23.260;2023-05-11T00:36:53;94420.91;;;8.87;100.00
6433;BME280;3249;42.690;23.260;2023-05-11T00:39:25;94430.78;;;8.90;100.00
6433;BME280;3249;42.690;23.260;2023-05-11T00:41:54;94429.38;;;8.94;100.00
6433;BME280;3249;42.690;23.260;2023-05-11T00:44:23;94438.03;;;9.06;100.00
6433;BME280;3249;42.690;23.260;2023-05-11T00:46:52;94436.66;;;9.04;100.00
6433;BME280;3249;42.690;23.260;2023-05-11T00:49:21;94431.16;;;9.00;100.00
6433;BME280;3249;42.690;23.260;2023-05-11T00:51:50;94410.84;;;8.79;100.00
6433;BME280;3249;42.690;23.260;2023-05-11T00:54:19;94428.59;;;8.87;100.00
6433;BME280;3249;42.690;23.260;2023-05-11T00:56:51;94433.50;;;9.02;100.00
6433;BME280;3249;42.690;23.260;2023-05-11T00:59:20;94434.69;;;8.99;100.00
6433;BME280;3249;42.690;23.260;2023-05-11T01:01:49;94425.25;;;8.93;100.00
6433;BME280;3249;42.690;23.260;2023-05-11T01:04:19;94428.78;;;8.86;100.00
6433;BME280;3249;42.690;23.260;2023-05-11T01:06:53;94428.41;;;8.82;100.00
6433;BME280;3249;42.690;23.260;2023-05-11T01:09:31;94431.59;;;8.78;100.00
6433;BME280;3249;42.690;23.260;2023-05-11T01:12:13;94422.69;;;8.74;100.00
6433;BME280;3249;42.690;23.260;2023-05-11T01:14:50;94415.03;;;8.61;100.00
6433;BME280;3249;42.690;23.260;2023-05-11T01:17:27;94428.25;;;8.71;100.00
6433;BME280;3249;42.690;23.260;2023-05-11T01:20:02;94427.28;;;8.65;100.00
6433;BME280;3249;42.690;23.260;2023-05-11T01:22:43;94429.84;;;8.65;100.00
6433;BME280;3249;42.690;23.260;2023-05-11T01:25:29;94430.84;;;8.64;100.00
6433;BME280;3249;42.690;23.260;2023-05-11T01:28:17;94435.97;;;8.64;100.00
6433;BME280;3249;42.690;23.260;2023-05-11T01:30:53;94431.84;;;8.50;100.00
6433;BME280;3249;42.690;23.260;2023-05-11T01:33:26;94427.31;;;8.52;100.00
6433;BME280;3249;42.690;23.260;2023-05-11T01:36:02;94408.38;;;8.40;100.00
6433;BME280;3249;42.690;23.260;2023-05-11T01:38:34;94433.00;;;8.54;100.00
6433;BME280;3249;42.690;23.260;2023-05-11T01:41:08;94414.69;;;8.44;100.00
6433;BME280;3249;42.690;23.260;2023-05-11T01:43:42;94423.75;;;8.34;100.00
6433;BME280;3249;42.690;23.260;2023-05-11T01:46:16;94428.47;;;8.50;100.00
6433;BME280;3249;42.690;23.260;2023-05-11T01:48:47;94423.75;;;8.47;100.00
6433;BME280;3249;42.690;23.260;2023-05-11T01:51:19;94433.63;;;8.56;100.00
6433;BME280;3249;42.690;23.260;2023-05-11T01:53:49;94436.78;;;8.45;100.00
6433;BME280;3249;42.690;23.260;2023-05-11T01:56:20;94430.88;;;8.32;100.00
6433;BME280;3249;42.690;23.260;2023-05-11T01:58:51;94431.25;;;8.42;100.00
6433;BME280;3249;42.690;23.260;2023-05-11T02:01:25;94423.34;;;8.50;100.00
6433;BME280;3249;42.690;23.260;2023-05-11T02:03:57;94422.56;;;8.49;100.00
6433;BME280;3249;42.690;23.260;2023-05-11T02:06:30;94421.38;;;8.45;100.00
6433;BME280;3249;42.690;23.260;2023-05-11T02:09:01;94417.84;;;8.40;100.00
6433;BME280;3249;42.690;23.260;2023-05-11T02:11:33;94420.59;;;8.51;100.00
6433;BME280;3249;42.690;23.260;2023-05-11T02:14:05;94413.91;;;8.37;100.00
6433;BME280;3249;42.690;23.260;2023-05-11T02:16:39;94411.56;;;8.23;100.00
6433;BME280;3249;42.690;23.260;2023-05-11T02:19:12;94406.41;;;8.29;100.00
6433;BME280;3249;42.690;23.260;2023-05-11T02:21:43;94407.22;;;8.36;100.00
6433;BME280;3249;42.690;23.260;2023-05-11T02:24:13;94415.66;;;8.50;100.00
6433;BME280;3249;42.690;23.260;2023-05-11T02:26:43;94396.53;;;8.20;100.00
6433;BME280;3249;42.690;23.260;2023-05-11T02:29:12;94415.06;;;8.48;100.00
6433;BME280;3249;42.690;23.260;2023-05-11T02:31:46;94417.25;;;8.31;100.00
6433;BME280;3249;42.690;23.260;2023-05-11T02:34:23;94423.56;;;8.35;100.00
6433;BME280;3249;42.690;23.260;2023-05-11T02:36:56;94412.69;;;8.20;100.00
6433;BME280;3249;42.690;23.260;2023-05-11T02:39:32;94418.63;;;8.34;100.00
6433;BME280;3249;42.690;23.260;2023-05-11T02:42:08;94414.91;;;8.36;100.00
6433;BME280;3249;42.690;23.260;2023-05-11T02:44:43;94415.06;;;8.28;100.00
6433;BME280;3249;42.690;23.260;2023-05-11T02:47:17;94410.16;;;8.40;100.00
6433;BME280;3249;42.690;23.260;2023-05-11T02:49:48;94423.75;;;8.34;100.00
6433;BME280;3249;42.690;23.260;2023-05-11T02:52:21;94422.97;;;8.40;100.00
6433;BME280;3249;42.690;23.260;2023-05-11T02:54:52;94422.00;;;8.21;100.00
6433;BME280;3249;42.690;23.260;2023-05-11T02:57:23;94411.69;;;8.08;100.00
6433;BME280;3249;42.690;23.260;2023-05-11T02:59:53;94414.50;;;8.26;100.00
6433;BME280;3249;42.690;23.260;2023-05-11T03:02:25;94422.59;;;8.23;100.00
6433;BME280;3249;42.690;23.260;2023-05-11T03:04:55;94418.25;;;8.30;100.00
6433;BME280;3249;42.690;23.260;2023-05-11T03:07:24;94395.56;;;8.01;100.00
6433;BME280;3249;42.690;23.260;2023-05-11T03:09:53;94419.00;;;8.18;100.00
6433;BME280;3249;42.690;23.260;2023-05-11T03:12:22;94411.91;;;8.13;100.00
6433;BME280;3249;42.690;23.260;2023-05-11T03:14:57;94412.31;;;8.10;100.00
6433;BME280;3249;42.690;23.260;2023-05-11T03:17:31;94420.00;;;8.17;100.00
6433;BME280;3249;42.690;23.260;2023-05-11T03:20:01;94386.06;;;7.95;100.00
6433;BME280;3249;42.690;23.260;2023-05-11T03:22:34;94426.50;;;8.13;100.00
6433;BME280;3249;42.690;23.260;2023-05-11T03:25:06;94427.69;;;8.04;100.00
6433;BME280;3249;42.690;23.260;2023-05-11T03:27:38;94430.44;;;7.96;100.00
6433;BME280;3249;42.690;23.260;2023-05-11T03:30:11;94427.31;;;8.07;100.00
6433;BME280;3249;42.690;23.260;2023-05-11T03:32:47;94433.00;;;8.15;100.00
6433;BME280;3249;42.690;23.260;2023-05-11T03:35:16;94424.13;;;8.18;100.00
6433;BME280;3249;42.690;23.260;2023-05-11T03:37:47;94436.56;;;8.14;100.00
6433;BME280;3249;42.690;23.260;2023-05-11T03:40:18;94438.53;;;8.12;100.00
6433;BME280;3249;42.690;23.260;2023-05-11T03:42:52;94431.81;;;7.85;100.00
6433;BME280;3249;42.690;23.260;2023-05-11T03:45:24;94424.75;;;8.07;100.00
6433;BME280;3249;42.690;23.260;2023-05-11T03:47:59;94435.94;;;7.86;100.00
6433;BME280;3249;42.690;23.260;2023-05-11T03:50:30;94433.56;;;7.65;100.00
6433;BME280;3249;42.690;23.260;2023-05-11T03:52:59;94437.50;;;7.61;100.00
6433;BME280;3249;42.690;23.260;2023-05-11T03:55:28;94435.31;;;7.65;100.00
6433;BME280;3249;42.690;23.260;2023-05-11T03:57:58;94430.97;;;7.59;100.00
6433;BME280;3249;42.690;23.260;2023-05-11T04:00:27;94436.31;;;7.57;100.00
6433;BME280;3249;42.690;23.260;2023-05-11T04:03:02;94446.94;;;7.67;100.00
6433;BME280;3249;42.690;23.260;2023-05-11T04:05:32;94442.97;;;7.52;100.00
6433;BME280;3249;42.690;23.260;2023-05-11T04:08:04;94434.69;;;7.56;100.00
6433;BME280;3249;42.690;23.260;2023-05-11T04:10:33;94452.44;;;7.64;100.00
6433;BME280;3249;42.690;23.260;2023-05-11T04:13:03;94448.16;;;7.78;100.00
6433;BME280;3249;42.690;23.260;2023-05-11T04:15:32;94456.81;;;7.70;100.00
6433;BME280;3249;42.690;23.260;2023-05-11T04:18:05;94453.47;;;7.76;100.00
6433;BME280;3249;42.690;23.260;2023-05-11T04:20:34;94445.38;;;7.66;100.00
6433;BME280;3249;42.690;23.260;2023-05-11T04:23:04;94454.44;;;7.62;100.00
6433;BME280;3249;42.690;23.260;2023-05-11T04:25:33;94459.97;;;7.72;100.00
6433;BME280;3249;42.690;23.260;2023-05-11T04:28:02;94466.69;;;7.80;100.00
6433;BME280;3249;42.690;23.260;2023-05-11T04:30:31;94457.22;;;7.74;100.00
6433;BME280;3249;42.690;23.260;2023-05-11T04:33:00;94468.88;;;7.89;100.00
6433;BME280;3249;42.690;23.260;2023-05-11T04:35:32;94459.97;;;7.72;100.00
6433;BME280;3249;42.690;23.260;2023-05-11T04:38:02;94462.38;;;7.87;100.00
6433;BME280;3249;42.690;23.260;2023-05-11T04:40:32;94467.81;;;7.64;100.00
6433;BME280;3249;42.690;23.260;2023-05-11T04:43:03;94472.81;;;7.79;100.00
6433;BME280;3249;42.690;23.260;2023-05-11T04:45:32;94472.59;;;7.80;100.00
6433;BME280;3249;42.690;23.260;2023-05-11T04:48:01;94465.06;;;7.66;100.00
6433;BME280;3249;42.690;23.260;2023-05-11T04:50:35;94472.38;;;7.75;100.00
6433;BME280;3249;42.690;23.260;2023-05-11T04:53:05;94475.16;;;7.80;100.00
6433;BME280;3249;42.690;23.260;2023-05-11T04:55:34;94485.25;;;7.95;100.00
6433;BME280;3249;42.690;23.260;2023-05-11T04:58:02;94485.25;;;8.01;100.00
6433;BME280;3249;42.690;23.260;2023-05-11T05:00:32;94481.47;;;7.84;100.00
6433;BME280;3249;42.690;23.260;2023-05-11T05:03:01;94474.00;;;7.83;100.00
6433;BME280;3249;42.690;23.260;2023-05-11T05:05:34;94485.03;;;7.83;100.00
6433;BME280;3249;42.690;23.260;2023-05-11T05:08:04;94489.78;;;8.06;100.00
6433;BME280;3249;42.690;23.260;2023-05-11T05:10:33;94490.03;;;8.24;100.00
6433;BME280;3249;42.690;23.260;2023-05-11T05:13:02;94462.38;;;8.06;100.00
6433;BME280;3249;42.690;23.260;2023-05-11T05:15:31;94493.38;;;8.24;100.00
6433;BME280;3249;42.690;23.260;2023-05-11T05:18:00;94493.75;;;8.15;100.00
6433;BME280;3249;42.690;23.260;2023-05-11T05:20:30;94493.16;;;8.00;100.00
6433;BME280;3249;42.690;23.260;2023-05-11T05:23:02;94498.28;;;8.06;100.00
6433;BME280;3249;42.690;23.260;2023-05-11T05:25:34;94497.28;;;8.14;100.00
6433;BME280;3249;42.690;23.260;2023-05-11T05:28:03;94495.56;;;8.27;100.00
6433;BME280;3249;42.690;23.260;2023-05-11T05:30:32;94503.44;;;8.26;100.00
6433;BME280;3249;42.690;23.260;2023-05-11T05:33:02;94502.59;;;8.12;100.00
6433;BME280;3249;42.690;23.260;2023-05-11T05:35:32;94501.66;;;8.07;100.00
6433;BME280;3249;42.690;23.260;2023-05-11T05:38:05;94455.06;;;7.84;100.00
6433;BME280;3249;42.690;23.260;2023-05-11T05:40:34;94495.56;;;8.21;100.00
6433;BME280;3249;42.690;23.260;2023-05-11T05:43:05;94495.91;;;8.11;100.00
6433;BME280;3249;42.690;23.260;2023-05-11T05:45:34;94487.84;;;8.14;100.00
6433;BME280;3249;42.690;23.260;2023-05-11T05:48:05;94496.34;;;8.21;100.00
6433;BME280;3249;42.690;23.260;2023-05-11T05:50:35;94501.50;;;8.34;100.00
6433;BME280;3249;42.690;23.260;2023-05-11T05:53:07;94514.50;;;8.39;100.00
6433;BME280;3249;42.690;23.260;2023-05-11T05:55:36;94509.00;;;8.42;100.00
6433;BME280;3249;42.690;23.260;2023-05-11T05:58:05;94508.22;;;8.61;100.00
6433;BME280;3249;42.690;23.260;2023-05-11T06:00:34;94510.38;;;8.51;100.00
6433;BME280;3249;42.690;23.260;2023-05-11T06:03:07;94489.47;;;8.41;100.00
6433;BME280;3249;42.690;23.260;2023-05-11T06:05:37;94520.84;;;8.63;100.00
6433;BME280;3249;42.690;23.260;2023-05-11T06:08:09;94518.25;;;8.76;100.00
6433;BME280;3249;42.690;23.260;2023-05-11T06:10:38;94521.00;;;8.81;100.00
6433;BME280;3249;42.690;23.260;2023-05-11T06:13:09;94521.63;;;8.76;100.00
6433;BME280;3249;42.690;23.260;2023-05-11T06:15:40;94520.44;;;8.72;100.00
6433;BME280;3249;42.690;23.260;2023-05-11T06:18:21;94528.91;;;8.73;100.00
6433;BME280;3249;42.690;23.260;2023-05-11T06:20:51;94529.31;;;8.76;100.00
6433;BME280;3249;42.690;23.260;2023-05-11T06:23:23;94536.41;;;9.00;100.00
6433;BME280;3249;42.690;23.260;2023-05-11T06:25:53;94530.44;;;9.13;100.00
6433;BME280;3249;42.690;23.260;2023-05-11T06:28:25;94487.50;;;8.63;100.00
6433;BME280;3249;42.690;23.260;2023-05-11T06:30:58;94536.75;;;9.23;100.00
6433;BME280;3249;42.690;23.260;2023-05-11T06:33:31;94527.53;;;8.96;100.00
6433;BME280;3249;42.690;23.260;2023-05-11T06:36:06;94535.03;;;9.04;100.00
6433;BME280;3249;42.690;23.260;2023-05-11T06:38:38;94506.22;;;8.70;100.00
6433;BME280;3249;42.690;23.260;2023-05-11T06:41:08;94523.19;;;8.77;100.00
6433;BME280;3249;42.690;23.260;2023-05-11T06:43:38;94540.16;;;8.78;100.00
6433;BME280;3249;42.690;23.260;2023-05-11T06:46:19;94533.06;;;8.87;100.00
6433;BME280;3249;42.690;23.260;2023-05-11T06:48:51;94527.53;;;8.96;100.00
6433;BME280;3249;42.690;23.260;2023-05-11T06:51:20;94537.19;;;8.88;100.00
6433;BME280;3249;42.690;23.260;2023-05-11T06:53:52;94502.66;;;8.77;100.00
6433;BME280;3249;42.690;23.260;2023-05-11T06:56:21;94517.03;;;8.91;100.00
6433;BME280;3249;42.690;23.260;2023-05-11T06:58:52;94545.66;;;9.14;100.00
6433;BME280;3249;42.690;23.260;2023-05-11T07:01:22;94544.25;;;9.38;100.00
6433;BME280;3249;42.690;23.260;2023-05-11T07:03:53;94546.34;;;9.47;100.00
6433;BME280;3249;42.690;23.260;2023-05-11T07:06:22;94547.44;;;9.20;100.00
6433;BME280;3249;42.690;23.260;2023-05-11T07:08:54;94548.31;;;9.52;100.00
6433;BME280;3249;42.690;23.260;2023-05-11T07:11:23;94555.41;;;9.63;100.00
6433;BME280;3249;42.690;23.260;2023-05-11T07:13:52;94558.56;;;9.72;100.00
6433;BME280;3249;42.690;23.260;2023-05-11T07:16:21;94557.91;;;9.83;100.00
6433;BME280;3249;42.690;23.260;2023-05-11T07:18:50;94552.72;;;9.89;100.00
6433;BME280;3249;42.690;23.260;2023-05-11T07:21:19;94562.41;;;9.94;100.00
6433;BME280;3249;42.690;23.260;2023-05-11T07:23:49;94551.09;;;10.01;100.00
6433;BME280;3249;42.690;23.260;2023-05-11T07:26:22;94558.47;;;9.91;100.00
6433;BME280;3249;42.690;23.260;2023-05-11T07:28:51;94511.56;;;9.51;100.00
6433;BME280;3249;42.690;23.260;2023-05-11T07:31:20;94558.22;;;10.06;100.00
6433;BME280;3249;42.690;23.260;2023-05-11T07:33:48;94566.59;;;10.32;100.00
6433;BME280;3249;42.690;23.260;2023-05-11T07:36:18;94552.84;;;10.45;100.00
6433;BME280;3249;42.690;23.260;2023-05-11T07:38:47;94571.81;;;10.75;100.00
6433;BME280;3249;42.690;23.260;2023-05-11T07:41:16;94569.13;;;10.94;100.00
6433;BME280;3249;42.690;23.260;2023-05-11T07:43:48;94570.47;;;10.72;100.00
6433;BME280;3249;42.690;23.260;2023-05-11T07:46:17;94553.25;;;10.42;100.00
6433;BME280;3249;42.690;23.260;2023-05-11T07:48:46;94571.81;;;10.19;100.00
6433;BME280;3249;42.690;23.260;2023-05-11T07:51:15;94563.25;;;10.32;100.00
6433;BME280;3249;42.690;23.260;2023-05-11T07:53:44;94568.50;;;10.43;100.00
6433;BME280;3249;42.690;23.260;2023-05-11T07:56:13;94569.31;;;10.68;100.00
6433;BME280;3249;42.690;23.260;2023-05-11T07:58:42;94572.94;;;10.61;100.00
6433;BME280;3249;42.690;23.260;2023-05-11T08:01:14;94575.00;;;10.46;100.00
6433;BME280;3249;42.690;23.260;2023-05-11T08:03:43;94569.09;;;10.45;100.00
6433;BME280;3249;42.690;23.260;2023-05-11T08:06:12;94571.94;;;10.62;100.00
6433;BME280;3249;42.690;23.260;2023-05-11T08:08:41;94577.19;;;10.98;100.00
6433;BME280;3249;42.690;23.260;2023-05-11T08:11:10;94571.97;;;11.29;100.00
6433;BME280;3249;42.690;23.260;2023-05-11T08:13:39;94580.84;;;11.33;100.00
6433;BME280;3249;42.690;23.260;2023-05-11T08:16:08;94558.34;;;11.04;100.00
6433;BME280;3249;42.690;23.260;2023-05-11T08:18:40;94579.28;;;11.32;100.00
6433;BME280;3249;42.690;23.260;2023-05-11T08:21:09;94581.28;;;11.30;100.00
6433;BME280;3249;42.690;23.260;2023-05-11T08:23:38;94579.41;;;11.19;100.00
6433;BME280;3249;42.690;23.260;2023-05-11T08:26:07;94576.91;;;11.30;100.00
6433;BME280;3249;42.690;23.260;2023-05-11T08:28:36;94573.56;;;11.48;100.00
6433;BME280;3249;42.690;23.260;2023-05-11T08:31:06;94566.72;;;11.60;99.68
6433;BME280;3249;42.690;23.260;2023-05-11T08:33:35;94570.31;;;11.77;97.77
6433;BME280;3249;42.690;23.260;2023-05-11T08:36:07;94579.13;;;11.69;96.54
6433;BME280;3249;42.690;23.260;2023-05-11T08:38:45;94580.50;;;11.72;97.72
6433;BME280;3249;42.690;23.260;2023-05-11T08:41:15;94560.66;;;11.30;97.67
6433;BME280;3249;42.690;23.260;2023-05-11T08:43:44;94588.25;;;11.47;99.50
6433;BME280;3249;42.690;23.260;2023-05-11T08:46:16;94587.91;;;11.19;100.00
6433;BME280;3249;42.690;23.260;2023-05-11T08:48:49;94556.38;;;11.42;100.00
6433;BME280;3249;42.690;23.260;2023-05-11T08:51:22;94566.78;;;11.53;99.19
6433;BME280;3249;42.690;23.260;2023-05-11T08:53:51;94541.72;;;11.42;96.85
6433;BME280;3249;42.690;23.260;2023-05-11T08:56:24;94581.56;;;11.64;97.29
6433;BME280;3249;42.690;23.260;2023-05-11T08:58:54;94577.69;;;11.73;96.75
6433;BME280;3249;42.690;23.260;2023-05-11T09:01:27;94575.25;;;11.78;96.67
6433;BME280;3249;42.690;23.260;2023-05-11T09:03:57;94583.13;;;11.83;97.96
6433;BME280;3249;42.690;23.260;2023-05-11T09:06:29;94548.31;;;11.56;100.00
6433;BME280;3249;42.690;23.260;2023-05-11T09:09:00;94570.03;;;11.85;95.75
6433;BME280;3249;42.690;23.260;2023-05-11T09:11:30;94577.88;;;11.90;95.39
6433;BME280;3249;42.690;23.260;2023-05-11T09:13:59;94568.28;;;11.97;94.94
6433;BME280;3249;42.690;23.260;2023-05-11T09:16:28;94557.72;;;11.87;96.81
6433;BME280;3249;42.690;23.260;2023-05-11T09:18:59;94564.84;;;12.03;97.23
6433;BME280;3249;42.690;23.260;2023-05-11T09:21:32;94558.34;;;12.30;94.81
6433;BME280;3249;42.690;23.260;2023-05-11T09:24:02;94564.38;;;12.24;93.28
6433;BME280;3249;42.690;23.260;2023-05-11T09:26:32;94581.47;;;12.07;94.79
6433;BME280;3249;42.690;23.260;2023-05-11T09:29:01;94576.16;;;12.02;98.67
6433;BME280;3249;42.690;23.260;2023-05-11T09:31:38;94569.47;;;11.83;100.00
6433;BME280;3249;42.690;23.260;2023-05-11T09:34:10;94540.41;;;11.87;100.00
6433;BME280;3249;42.690;23.260;2023-05-11T09:36:43;94571.56;;;12.22;100.00
6433;BME280;3249;42.690;23.260;2023-05-11T09:39:13;94544.66;;;12.29;99.15
6433;BME280;3249;42.690;23.260;2023-05-11T09:41:44;94571.25;;;12.71;96.94
6433;BME280;3249;42.690;23.260;2023-05-11T09:44:14;94555.59;;;12.54;94.98
6433;BME280;3249;42.690;23.260;2023-05-11T09:46:44;94559.91;;;12.60;94.35
6433;BME280;3249;42.690;23.260;2023-05-11T09:49:13;94528.56;;;12.27;97.96
6433;BME280;3249;42.690;23.260;2023-05-11T09:51:45;94559.22;;;12.65;100.00
6433;BME280;3249;42.690;23.260;2023-05-11T09:54:16;94564.22;;;12.78;99.93
6433;BME280;3249;42.690;23.260;2023-05-11T09:56:47;94555.44;;;12.79;97.74
6433;BME280;3249;42.690;23.260;2023-05-11T09:59:37;94556.50;;;12.60;98.22
6433;BME280;3249;42.690;23.260;2023-05-11T10:02:20;94550.00;;;12.69;99.13
6433;BME280;3249;42.690;23.260;2023-05-11T10:04:52;94549.50;;;12.90;98.80
6433;BME280;3249;42.690;23.260;2023-05-11T10:07:29;94554.53;;;12.85;96.70
6433;BME280;3249;42.690;23.260;2023-05-11T10:09:59;94545.22;;;12.84;95.14
6433;BME280;3249;42.690;23.260;2023-05-11T10:12:29;94531.63;;;12.36;97.10
6433;BME280;3249;42.690;23.260;2023-05-11T10:15:01;94529.97;;;12.41;100.00
6433;BME280;3249;42.690;23.260;2023-05-11T10:17:32;94526.97;;;12.44;98.84
6433;BME280;3249;42.690;23.260;2023-05-11T10:20:03;94530.47;;;12.50;100.00
6433;BME280;3249;42.690;23.260;2023-05-11T10:22:36;94516.41;;;12.46;98.75
6433;BME280;3249;42.690;23.260;2023-05-11T10:25:07;94529.34;;;12.69;100.00
6433;BME280;3249;42.690;23.260;2023-05-11T10:27:38;94530.56;;;12.55;97.31
6433;BME280;3249;42.690;23.260;2023-05-11T10:30:09;94530.03;;;12.64;99.20
6433;BME280;3249;42.690;23.260;2023-05-11T10:32:39;94485.13;;;12.54;100.00
6433;BME280;3249;42.690;23.260;2023-05-11T10:35:08;94519.72;;;12.76;96.89
6433;BME280;3249;42.690;23.260;2023-05-11T10:37:40;94464.69;;;12.52;97.98
6433;BME280;3249;42.690;23.260;2023-05-11T10:40:12;94515.34;;;12.35;95.09
6433;BME280;3249;42.690;23.260;2023-05-11T10:42:59;94499.03;;;12.12;99.07
6433;BME280;3249;42.690;23.260;2023-05-11T10:45:39;94505.97;;;12.11;100.00
6433;BME280;3249;42.690;23.260;2023-05-11T10:48:34;94489.41;;;12.19;100.00
6433;BME280;3249;42.690;23.260;2023-05-11T10:51:31;94513.59;;;12.06;100.00
6433;BME280;3249;42.690;23.260;2023-05-11T10:54:24;94515.94;;;12.08;100.00
6433;BME280;3249;42.690;23.260;2023-05-11T10:57:11;94516.22;;;12.18;99.89
6433;BME280;3249;42.690;23.260;2023-05-11T11:02:35;94521.38;;;12.59;96.85
6433;BME280;3249;42.690;23.260;2023-05-11T11:05:04;94510.78;;;12.49;99.79
6433;BME280;3249;42.690;23.260;2023-05-11T11:14:00;94515.84;;;12.44;99.15
6433;BME280;3249;42.690;23.260;2023-05-11T11:16:31;94503.53;;;12.69;97.73
6433;BME280;3249;42.690;23.260;2023-05-11T11:22:00;94521.19;;;12.95;90.48
6433;BME280;3249;42.690;23.260;2023-05-11T11:24:42;94510.97;;;12.88;90.59
6433;BME280;3249;42.690;23.260;2023-05-11T11:27:13;94503.31;;;12.70;90.70
6433;BME280;3249;42.690;23.260;2023-05-11T11:30:15;94499.25;;;12.74;94.97
6433;BME280;3249;42.690;23.260;2023-05-11T11:32:46;94502.19;;;12.89;94.98
6433;BME280;3249;42.690;23.260;2023-05-11T11:35:45;94502.06;;;12.73;92.85
6433;BME280;3249;42.690;23.260;2023-05-11T11:38:16;94494.22;;;12.79;93.71
6433;BME280;3249;42.690;23.260;2023-05-11T11:40:47;94499.88;;;12.99;92.38
6433;BME280;3249;42.690;23.260;2023-05-11T11:43:19;94482.34;;;12.90;92.83
6433;BME280;3249;42.690;23.260;2023-05-11T11:45:52;94489.28;;;13.24;90.10
6433;BME280;3249;42.690;23.260;2023-05-11T11:48:27;94505.66;;;13.52;89.11
6433;BME280;3249;42.690;23.260;2023-05-11T11:51:01;94511.63;;;13.53;90.48
6433;BME280;3249;42.690;23.260;2023-05-11T11:56:37;94499.28;;;13.43;86.34
6433;BME280;3249;42.690;23.260;2023-05-11T11:59:06;94496.13;;;13.53;87.45
6433;BME280;3249;42.690;23.260;2023-05-11T12:01:42;94474.69;;;13.18;89.21
6433;BME280;3249;42.690;23.260;2023-05-11T12:04:24;94502.56;;;13.16;90.00
6433;BME280;3249;42.690;23.260;2023-05-11T12:06:58;94493.25;;;13.15;92.61
6433;BME280;3249;42.690;23.260;2023-05-11T12:09:27;94494.34;;;12.96;92.69
6433;BME280;3249;42.690;23.260;2023-05-11T12:11:56;94490.75;;;12.85;91.38
6433;BME280;3249;42.690;23.260;2023-05-11T12:14:27;94484.69;;;12.68;93.25
6433;BME280;3249;42.690;23.260;2023-05-11T12:17:08;94486.00;;;12.82;95.86
6433;BME280;3249;42.690;23.260;2023-05-11T12:19:42;94486.03;;;12.71;96.08
6433;BME280;3249;42.690;23.260;2023-05-11T12:22:12;94482.88;;;12.80;95.86
6433;BME280;3249;42.690;23.260;2023-05-11T12:24:42;94482.66;;;12.93;95.88
6433;BME280;3249;42.690;23.260;2023-05-11T12:27:11;94447.97;;;12.78;94.44
6433;BME280;3249;42.690;23.260;2023-05-11T12:29:39;94485.69;;;12.90;91.70
6433;BME280;3249;42.690;23.260;2023-05-11T12:32:13;94479.88;;;12.83;93.35
6433;BME280;3249;42.690;23.260;2023-05-11T12:34:57;94475.22;;;12.62;95.55
6433;BME280;3249;42.690;23.260;2023-05-11T12:37:27;94466.13;;;12.60;95.72
6433;BME280;3249;42.690;23.260;2023-05-11T12:39:56;94467.69;;;12.61;97.86
6433;BME280;3249;42.690;23.260;2023-05-11T12:42:28;94469.94;;;12.69;97.25
6433;BME280;3249;42.690;23.260;2023-05-11T12:44:57;94452.56;;;12.76;99.34
6433;BME280;3249;42.690;23.260;2023-05-11T12:47:30;94465.34;;;12.82;94.42
6433;BME280;3249;42.690;23.260;2023-05-11T12:49:59;94454.00;;;12.49;97.26
6433;BME280;3249;42.690;23.260;2023-05-11T12:52:28;94459.28;;;12.54;99.91
6433;BME280;3249;42.690;23.260;2023-05-11T12:54:57;94457.81;;;12.46;100.00
6433;BME280;3249;42.690;23.260;2023-05-11T12:57:28;94437.47;;;12.38;100.00
6433;BME280;3249;42.690;23.260;2023-05-11T13:00:06;94433.22;;;12.44;99.30
6433;BME280;3249;42.690;23.260;2023-05-11T13:02:48;94438.28;;;12.50;100.00
6433;BME280;3249;42.690;23.260;2023-05-11T13:05:22;94439.94;;;12.45;100.00
6433;BME280;3249;42.690;23.260;2023-05-11T13:07:58;94441.66;;;12.51;100.00
6433;BME280;3249;42.690;23.260;2023-05-11T13:10:27;94429.75;;;12.50;100.00
6433;BME280;3249;42.690;23.260;2023-05-11T13:12:56;94433.56;;;12.47;98.14
6433;BME280;3249;42.690;23.260;2023-05-11T13:15:25;94432.22;;;12.68;97.43
6433;BME280;3249;42.690;23.260;2023-05-11T13:18:00;94425.59;;;12.83;98.59
6433;BME280;3249;42.690;23.260;2023-05-11T13:20:31;94431.44;;;12.79;94.61
6433;BME280;3249;42.690;23.260;2023-05-11T13:23:04;94433.03;;;12.68;97.61
6433;BME280;3249;42.690;23.260;2023-05-11T13:28:20;94417.84;;;12.72;98.87
6433;BME280;3249;42.690;23.260;2023-05-11T13:30:56;94422.56;;;12.75;97.66
6433;BME280;3249;42.690;23.260;2023-05-11T13:33:28;94418.97;;;12.76;97.38
6433;BME280;3249;42.690;23.260;2023-05-11T13:35:57;94418.50;;;12.67;100.00
6433;BME280;3249;42.690;23.260;2023-05-11T13:38:26;94421.44;;;12.59;98.77
6433;BME280;3249;42.690;23.260;2023-05-11T13:40:56;94423.47;;;12.46;100.00
6433;BME280;3249;42.690;23.260;2023-05-11T13:43:25;94424.59;;;12.50;100.00
6433;BME280;3249;42.690;23.260;2023-05-11T13:45:54;94420.97;;;12.39;100.00
6433;BME280;3249;42.690;23.260;2023-05-11T13:48:23;94419.72;;;12.19;100.00
6433;BME280;3249;42.690;23.260;2023-05-11T13:50:54;94413.06;;;12.00;100.00
6433;BME280;3249;42.690;23.260;2023-05-11T13:53:23;94412.94;;;11.95;100.00